createdAt,value
2019-03-13T00:03:33.073Z,1.90
2019-03-13T00:08:35.855Z,1.87
2019-03-13T00:13:37.971Z,2.20
2019-03-13T00:18:39.933Z,1.93
2019-03-13T00:23:41.922Z,1.90
2019-03-13T00:28:43.876Z,1.60
2019-03-13T00:33:45.831Z,1.83
2019-03-13T00:38:47.824Z,1.93
2019-03-13T00:43:49.949Z,1.57
2019-03-13T00:48:51.869Z,1.60
2019-03-13T00:53:54.081Z,1.53
2019-03-13T00:58:56.968Z,1.40
2019-03-13T01:04:04.528Z,1.57
2019-03-13T01:09:06.741Z,1.27
2019-03-13T01:14:09.117Z,1.33
2019-03-13T01:19:11.251Z,1.60
2019-03-13T01:24:13.257Z,1.50
2019-03-13T01:29:16.134Z,1.30
2019-03-13T01:34:33.886Z,1.70
2019-03-13T01:39:36.145Z,1.77
2019-03-13T01:44:40.534Z,2.00
2019-03-13T01:49:42.212Z,2.30
2019-03-13T01:54:44.123Z,1.90
2019-03-13T01:59:46.488Z,1.90
2019-03-13T02:04:48.428Z,1.77
2019-03-13T02:09:50.586Z,2.10
2019-03-13T02:14:52.547Z,2.10
2019-03-13T02:19:54.745Z,2.03
2019-03-13T02:24:57.332Z,1.90
2019-03-13T02:29:59.484Z,1.80
2019-03-13T02:35:01.375Z,2.10
2019-03-13T02:40:05.410Z,2.40
2019-03-13T02:45:08.242Z,2.10
2019-03-13T02:50:10.337Z,1.80
2019-03-13T02:55:12.478Z,2.57
2019-03-13T03:00:16.519Z,1.97
2019-03-13T03:05:19.132Z,1.87
2019-03-13T03:10:21.217Z,2.20
2019-03-13T03:15:23.485Z,1.90
2019-03-13T03:20:25.760Z,2.00
2019-03-13T03:25:28.266Z,1.60
2019-03-13T03:30:30.278Z,1.00
2019-03-13T03:35:32.381Z,0.80
2019-03-13T03:40:34.325Z,0.80
2019-03-13T03:45:36.203Z,0.77
2019-03-13T03:50:39.504Z,0.67
2019-03-13T03:55:42.302Z,0.60
2019-03-13T04:00:44.567Z,0.77
2019-03-13T04:05:47.498Z,0.90
2019-03-13T04:10:50.606Z,0.87
2019-03-13T04:15:53.277Z,1.30
2019-03-13T04:20:55.283Z,1.70
2019-03-13T04:25:59.409Z,1.30
2019-03-13T04:31:01.298Z,1.30
2019-03-13T04:36:03.567Z,1.50
2019-03-13T04:41:05.762Z,1.70
2019-03-13T04:46:07.881Z,1.40
2019-03-13T04:51:09.724Z,1.80
2019-03-13T04:56:11.703Z,1.77
2019-03-13T05:01:13.608Z,1.50
2019-03-13T05:06:19.179Z,2.07
2019-03-13T05:11:21.718Z,1.90
2019-03-13T05:16:24.048Z,1.77
2019-03-13T05:21:26.840Z,1.57
2019-03-13T05:26:29.400Z,1.90
2019-03-13T05:31:31.430Z,1.80
2019-03-13T05:36:33.989Z,1.87
2019-03-13T05:41:35.989Z,2.00
2019-03-13T05:46:37.967Z,2.40
2019-03-13T05:51:40.295Z,2.10
2019-03-13T05:56:42.223Z,1.97
2019-03-13T06:01:44.563Z,2.10
2019-03-13T06:06:46.516Z,2.17
2019-03-13T06:11:48.760Z,2.50
2019-03-13T06:16:51.320Z,1.87
2019-03-13T06:21:53.628Z,2.30
2019-03-13T06:26:56.012Z,2.23
2019-03-13T06:31:58.392Z,1.77
2019-03-13T06:37:00.691Z,1.90
2019-03-13T06:42:02.745Z,1.77
2019-03-13T06:47:05.040Z,1.70
2019-03-13T06:52:07.003Z,2.30
2019-03-13T06:57:08.999Z,1.90
2019-03-13T07:02:29.265Z,2.30
2019-03-13T07:07:41.775Z,2.20
2019-03-13T07:13:02.155Z,1.90
2019-03-13T07:18:27.262Z,2.17
2019-03-13T07:23:44.566Z,2.33
2019-03-13T07:29:12.314Z,2.50
2019-03-13T07:34:27.953Z,2.30
2019-03-13T07:39:58.309Z,2.03
2019-03-13T07:45:09.991Z,2.03
2019-03-13T07:50:30.881Z,2.20
2019-03-13T07:56:13.033Z,2.50
2019-03-13T08:01:22.437Z,2.23
2019-03-13T08:06:38.549Z,2.10
2019-03-13T08:11:56.418Z,1.90
2019-03-13T08:17:19.086Z,2.00
2019-03-13T08:22:52.715Z,1.73
2019-03-13T08:28:15.495Z,2.13
2019-03-13T08:33:45.953Z,1.60
2019-03-13T08:39:08.005Z,1.80
2019-03-13T08:44:45.593Z,2.20
2019-03-13T08:50:11.510Z,1.87
2019-03-13T08:55:33.773Z,2.10
2019-03-13T09:00:45.043Z,2.17
2019-03-13T09:06:09.518Z,2.00
2019-03-13T09:11:36.413Z,2.03
2019-03-13T09:16:47.405Z,2.10
2019-03-13T09:22:12.358Z,1.90
2019-03-13T09:27:37.286Z,1.97
2019-03-13T09:32:58.606Z,1.70
2019-03-13T09:38:06.851Z,1.90
2019-03-13T09:43:27.841Z,2.13
2019-03-13T09:48:38.534Z,1.90
2019-03-13T09:53:52.273Z,1.80
2019-03-13T09:59:26.315Z,1.60
2019-03-13T10:05:07.945Z,1.50
2019-03-13T10:10:38.659Z,1.80
2019-03-13T10:15:48.888Z,1.50
2019-03-13T10:21:17.512Z,1.70
2019-03-13T10:26:26.027Z,1.53
2019-03-13T10:31:35.814Z,1.63
2019-03-13T10:36:55.074Z,1.57
2019-03-13T10:42:19.469Z,1.57
2019-03-13T10:47:32.557Z,1.30
2019-03-13T10:53:00.620Z,1.33
2019-03-13T10:58:35.045Z,1.80
2019-03-13T11:03:57.585Z,1.33
2019-03-13T11:09:15.268Z,1.30
2019-03-13T11:14:27.497Z,1.40
2019-03-13T11:19:40.952Z,1.30
2019-03-13T11:24:54.230Z,1.40
2019-03-13T11:30:14.696Z,1.53
2019-03-13T11:35:31.721Z,1.20
2019-03-13T11:41:08.708Z,1.60
2019-03-13T11:46:30.536Z,1.37
2019-03-13T11:51:46.296Z,1.50
2019-03-13T11:57:08.101Z,1.30
2019-03-13T12:02:28.394Z,1.40
2019-03-13T12:07:48.769Z,1.63
2019-03-13T12:12:58.505Z,1.53
2019-03-13T12:18:05.981Z,1.33
2019-03-13T12:23:26.670Z,1.20
2019-03-13T12:28:37.217Z,1.30
2019-03-13T12:33:54.724Z,1.83
2019-03-13T12:39:05.449Z,1.30
2019-03-13T12:44:16.284Z,1.50
2019-03-13T12:49:26.688Z,1.63
2019-03-13T12:55:02.309Z,1.57
2019-03-13T13:00:31.069Z,1.20
2019-03-13T13:05:51.426Z,1.80
2019-03-13T13:11:19.258Z,1.20
2019-03-13T13:16:29.792Z,1.67
2019-03-13T13:21:32.651Z,1.50
2019-03-13T13:26:35.462Z,1.50
2019-03-13T13:31:38.475Z,1.57
2019-03-13T13:36:41.390Z,1.70
2019-03-13T13:41:53.477Z,1.70
2019-03-13T13:46:56.759Z,1.77
2019-03-13T13:52:01.993Z,1.33
2019-03-13T13:57:04.667Z,1.57
2019-03-13T14:02:07.540Z,1.87
2019-03-13T14:07:09.588Z,1.90
2019-03-13T14:12:12.302Z,1.40
2019-03-13T14:17:15.217Z,1.40
2019-03-13T14:22:17.497Z,1.50
2019-03-13T14:27:20.065Z,1.50
2019-03-13T14:32:21.880Z,1.27
2019-03-13T14:37:23.729Z,1.60
2019-03-13T14:42:25.853Z,1.70
2019-03-13T14:47:29.315Z,1.60
2019-03-13T14:52:31.461Z,1.40
2019-03-13T14:57:33.650Z,1.47
2019-03-13T15:02:36.070Z,1.57
2019-03-13T15:07:37.928Z,1.23
2019-03-13T15:12:42.911Z,1.33
2019-03-13T15:17:44.006Z,1.73
2019-03-13T15:22:46.098Z,1.43
2019-03-13T15:27:48.074Z,1.73
2019-03-13T15:32:50.845Z,1.57
2019-03-13T15:37:52.892Z,1.70
2019-03-13T15:42:55.605Z,1.37
2019-03-13T15:47:58.217Z,1.57
2019-03-13T15:53:00.603Z,1.23
2019-03-13T15:58:02.712Z,1.67
2019-03-13T16:03:04.958Z,1.43
2019-03-13T16:08:07.186Z,1.70
2019-03-13T16:13:09.227Z,2.20
2019-03-13T16:18:12.760Z,1.50
2019-03-13T16:23:17.273Z,1.53
2019-03-13T16:28:19.927Z,1.50
2019-03-13T16:33:22.464Z,1.53
2019-03-13T16:38:25.180Z,1.47
2019-03-13T16:43:27.707Z,1.43
2019-03-13T16:48:29.962Z,1.77
2019-03-13T16:53:32.006Z,1.27
2019-03-13T16:58:33.790Z,1.27
2019-03-13T17:03:36.104Z,1.40
2019-03-13T17:08:37.985Z,1.50
2019-03-13T17:13:40.777Z,1.77
2019-03-13T17:18:43.037Z,1.30
2019-03-13T17:23:45.632Z,1.30
2019-03-13T17:28:50.231Z,1.60
2019-03-13T17:33:51.999Z,1.17
2019-03-13T17:38:54.153Z,1.20
2019-03-13T17:43:57.645Z,1.67
2019-03-13T17:48:59.549Z,1.70
2019-03-13T17:54:02.124Z,1.57
2019-03-13T17:59:05.540Z,1.53
2019-03-13T18:04:07.627Z,1.40
2019-03-13T18:09:09.646Z,1.67
2019-03-13T18:14:13.847Z,1.43
2019-03-13T18:19:16.638Z,1.20
2019-03-13T18:24:19.451Z,1.83
2019-03-13T18:29:25.180Z,1.63
2019-03-13T18:34:27.037Z,1.63
2019-03-13T18:39:29.088Z,1.97
2019-03-13T18:44:30.933Z,1.83
2019-03-13T18:49:32.941Z,1.60
2019-03-13T18:54:35.139Z,2.10
2019-03-13T18:59:40.577Z,1.77
2019-03-13T19:04:43.468Z,1.70
2019-03-13T19:09:45.537Z,1.80
2019-03-13T19:14:48.436Z,1.70
2019-03-13T19:19:50.425Z,1.50
2019-03-13T19:24:52.485Z,1.70
2019-03-13T19:29:54.478Z,1.60
2019-03-13T19:34:57.586Z,1.70
2019-03-13T19:40:00.417Z,1.80
2019-03-13T19:45:02.963Z,1.77
2019-03-13T19:50:05.688Z,1.33
2019-03-13T19:55:11.022Z,1.60
2019-03-13T20:00:15.473Z,1.40
2019-03-13T20:05:19.626Z,1.50
2019-03-13T20:10:22.805Z,1.60
2019-03-13T20:15:25.284Z,1.87
2019-03-13T20:20:27.449Z,1.50
2019-03-13T20:25:29.937Z,1.60
2019-03-13T20:30:32.196Z,1.60
2019-03-13T20:35:36.894Z,1.77
2019-03-13T20:40:39.140Z,1.40
2019-03-13T20:45:41.201Z,1.40
2019-03-13T20:50:44.106Z,1.50
2019-03-13T20:55:46.093Z,1.60
2019-03-13T21:00:48.192Z,1.87
2019-03-13T21:05:50.230Z,1.70
2019-03-13T21:10:53.255Z,1.20
2019-03-13T21:15:55.110Z,1.50
2019-03-13T21:20:57.157Z,1.47
2019-03-13T21:25:59.069Z,1.70
2019-03-13T21:31:03.985Z,1.50
2019-03-13T21:36:06.185Z,1.63
2019-03-13T21:41:08.273Z,2.17
2019-03-13T21:46:10.972Z,1.60
2019-03-13T21:51:13.587Z,1.80
2019-03-13T21:56:15.663Z,2.67
2019-03-13T22:01:20.071Z,2.00
2019-03-13T22:06:28.676Z,2.37
2019-03-13T22:11:26.093Z,3.60
2019-03-13T22:16:28.242Z,2.47
2019-03-13T22:21:30.463Z,2.63
2019-03-13T22:26:32.702Z,3.30
2019-03-13T22:31:35.031Z,3.07
2019-03-13T22:36:37.129Z,2.80
2019-03-13T22:41:39.334Z,3.30
2019-03-13T22:46:41.920Z,3.53
2019-03-13T22:51:43.866Z,3.70
2019-03-13T22:56:46.385Z,3.10
2019-03-13T23:01:48.562Z,3.30
2019-03-13T23:06:51.632Z,3.53
2019-03-13T23:11:54.660Z,3.73
2019-03-13T23:16:56.613Z,3.80
2019-03-13T23:21:59.569Z,3.23
2019-03-13T23:27:01.538Z,3.37
2019-03-13T23:32:03.452Z,4.23
2019-03-13T23:37:05.606Z,3.70
2019-03-13T23:42:07.872Z,4.13
2019-03-13T23:47:10.598Z,4.20
2019-03-13T23:52:13.126Z,4.50
2019-03-13T23:57:15.578Z,3.97
